createdAt,value
2023-01-10T00:06:32.914Z,98941
2023-01-10T00:16:33.734Z,98940
2023-01-10T00:26:34.322Z,98939
2023-01-10T00:36:34.607Z,98929
2023-01-10T00:46:35.132Z,98925
2023-01-10T00:56:35.628Z,98928
2023-01-10T01:06:36.486Z,98941
2023-01-10T01:16:36.747Z,98934
2023-01-10T01:26:37.283Z,98919
2023-01-10T01:36:37.753Z,98917
2023-01-10T01:46:38.353Z,98922
2023-01-10T01:56:38.810Z,98916
2023-01-10T02:06:39.547Z,98926
2023-01-10T02:16:40.155Z,98937
2023-01-10T02:36:40.955Z,98945
2023-01-10T02:46:41.434Z,98941
2023-01-10T02:56:41.819Z,98939
2023-01-10T03:06:42.307Z,98942
2023-01-10T03:16:42.827Z,98954
2023-01-10T03:26:43.382Z,98969
2023-01-10T03:36:43.838Z,98965
2023-01-10T03:46:44.566Z,98964
2023-01-10T03:56:45.090Z,98981
2023-01-10T04:06:45.667Z,98986
2023-01-10T04:16:46.195Z,98991
2023-01-10T04:26:46.799Z,98989
2023-01-10T04:36:48.867Z,98978
2023-01-10T04:46:47.906Z,98986
2023-01-10T04:56:48.429Z,99004
2023-01-10T05:06:49.030Z,99021
2023-01-10T05:16:49.837Z,99044
2023-01-10T05:26:50.321Z,99052
2023-01-10T05:36:50.921Z,99072
2023-01-10T05:46:51.211Z,99072
2023-01-10T05:56:51.780Z,99062
2023-01-10T06:06:52.333Z,99089
2023-01-10T06:16:52.893Z,99098
2023-01-10T06:26:53.522Z,99134
2023-01-10T06:36:54.075Z,99146
2023-01-10T06:46:54.705Z,99150
2023-01-10T06:56:55.308Z,99160
2023-01-10T07:06:55.883Z,99181
2023-01-10T07:16:56.467Z,99201
2023-01-10T07:26:56.775Z,99232
2023-01-10T07:36:57.608Z,99249
2023-01-10T07:46:57.903Z,99261
2023-01-10T07:56:58.494Z,99295
2023-01-10T08:06:59.067Z,99313
2023-01-10T08:16:59.659Z,99336
2023-01-10T08:27:00.045Z,99360
2023-01-10T08:37:00.537Z,99371
2023-01-10T08:47:01.057Z,99398
2023-01-10T08:57:01.538Z,99416
2023-01-10T09:07:02.355Z,99450
2023-01-10T09:17:02.929Z,99479
2023-01-10T09:27:03.446Z,99495
2023-01-10T09:37:03.670Z,99506
2023-01-10T09:47:14.198Z,99532
2023-01-10T09:57:04.647Z,99551
2023-01-10T10:07:05.786Z,99570
2023-01-10T10:17:05.853Z,99564
2023-01-10T10:27:06.237Z,99549
2023-01-10T10:37:06.921Z,99584
2023-01-10T10:47:07.496Z,99603
2023-01-10T10:57:07.782Z,99618
2023-01-10T11:07:08.373Z,99637
2023-01-10T11:17:08.650Z,99656
2023-01-10T11:27:09.236Z,99682
2023-01-10T11:37:09.514Z,99696
2023-01-10T11:47:10.065Z,99703
2023-01-10T11:57:10.476Z,99711
2023-01-10T12:07:11.006Z,99720
2023-01-10T12:17:11.691Z,99723
2023-01-10T12:27:12.147Z,99728
2023-01-10T12:47:13.793Z,99775
2023-01-10T12:57:13.634Z,99778
2023-01-10T13:07:14.311Z,99805
2023-01-10T13:17:14.771Z,99821
2023-01-10T13:27:15.319Z,99821
2023-01-10T13:37:15.921Z,99849
2023-01-10T13:47:16.493Z,99876
2023-01-10T13:57:17.096Z,99889
2023-01-10T14:07:17.977Z,99902
2023-01-10T14:17:18.581Z,99912
2023-01-10T14:27:19.141Z,99931
2023-01-10T14:37:19.771Z,99944
2023-01-10T14:47:19.953Z,99968
2023-01-10T15:07:21.182Z,99992
2023-01-10T15:17:21.758Z,100010
2023-01-10T15:27:22.084Z,100030
2023-01-10T15:37:24.634Z,100050
2023-01-10T15:47:23.220Z,100060
2023-01-10T15:57:23.757Z,100083
2023-01-10T16:07:25.685Z,100092
2023-01-10T16:17:24.829Z,100101
2023-01-10T16:37:25.769Z,100120
2023-01-10T16:47:26.426Z,100127
2023-01-10T16:57:27.007Z,100151
2023-01-10T17:07:27.608Z,100166
2023-01-10T17:17:29.270Z,100165
2023-01-10T17:27:28.387Z,100171
2023-01-10T17:37:28.825Z,100183
2023-01-10T17:47:29.609Z,100203
2023-01-10T17:57:31.886Z,100219
2023-01-10T18:07:30.414Z,100229
2023-01-10T18:17:31.194Z,100239
2023-01-10T18:27:31.726Z,100236
2023-01-10T18:37:32.077Z,100252
2023-01-10T18:47:32.569Z,100266
2023-01-10T18:57:33.089Z,100268
2023-01-10T19:07:33.593Z,100265
2023-01-10T19:17:34.618Z,100259
2023-01-10T19:37:35.387Z,100268
2023-01-10T19:57:36.877Z,100301
2023-01-10T20:07:36.885Z,100305
2023-01-10T20:17:37.710Z,100321
2023-01-10T20:37:38.641Z,100339
2023-01-10T20:47:39.386Z,100341
2023-01-10T20:57:39.570Z,100345
2023-01-10T21:07:40.089Z,100347
2023-01-10T21:17:40.609Z,100352
2023-01-10T21:37:41.653Z,100350
2023-01-10T21:47:42.144Z,100354
2023-01-10T21:57:42.655Z,100341
2023-01-10T22:07:43.133Z,100339
2023-01-10T22:17:43.891Z,100339
2023-01-10T22:27:45.105Z,100355
2023-01-10T22:37:44.724Z,100349
2023-01-10T22:47:45.154Z,100340
2023-01-10T23:07:46.125Z,100343
2023-01-10T23:17:46.755Z,100352
2023-01-10T23:27:46.895Z,100350
2023-01-10T23:37:48.604Z,100351
2023-01-10T23:47:47.763Z,100352
2023-01-10T23:57:48.230Z,100357
